ムンバイ の空港の天気 - METARとTAF

チャットラパティー・シヴァージー国際空港 ( VABB / BOM ) - インド ムンバイ
飛行場実況気象(Metar)
観測時間04/26 22:00 IST (04/26 16:30 UTC)
風向・風速北西 3m/s
視程3000m
天気現象煙霧
なし
気温31℃
湿度70%
気圧1007hPa
METARVABB 261630Z 31006KT 3000 HZ NSC 31/25 Q1007 NOSIG
過去の天気等 Google飛行場航空写真 Wunderground天気予報

過去48時間のMETAR

飛行場予報(TAF)
発表時間: 4/26 19:30 IST (4/26 14:00 UTC)
予報対象時間: 26日20時 IST ~ 27日5時 IST
風向・風速西北西 6m/s
視程5000m
天気現象
少しの雲 雲底高度 3050m
26日21時 IST ~ 26日23時 IST に徐々に
風向・風速北西 3m/s
視程4000m
天気現象煙霧 煙
27日1時 IST ~ 27日3時 IST に徐々に
風向・風速不定 2m/s
視程3000m
天気現象煙霧
TAF VABB 261400Z 2615/2624 30012KT 5000 FU FEW100
BECMG 2616/2618 32006KT 4000 HZ FU
BECMG 2620/2622 VRB03KT 3000 HZ